createdAt,value
2024-02-10T00:01:10.382Z,5.30
2024-02-10T00:03:38.906Z,5.85
2024-02-10T00:06:08.548Z,5.78
2024-02-10T00:08:41.355Z,6.40
2024-02-10T00:11:09.817Z,7.60
2024-02-10T00:13:40.886Z,8.32
2024-02-10T00:16:11.140Z,8.32
2024-02-10T00:18:42.210Z,9.35
2024-02-10T00:21:11.381Z,8.95
2024-02-10T00:23:42.608Z,8.15
2024-02-10T00:26:11.127Z,7.55
2024-02-10T00:28:40.280Z,7.78
2024-02-10T00:31:09.152Z,8.10
2024-02-10T00:33:37.820Z,8.02
2024-02-10T00:36:06.693Z,8.02
2024-02-10T00:38:35.804Z,8.98
2024-02-10T00:41:07.121Z,7.00
2024-02-10T00:43:38.410Z,7.68
2024-02-10T00:46:09.294Z,7.75
2024-02-10T00:48:38.226Z,6.50
2024-02-10T00:51:07.623Z,6.78
2024-02-10T00:53:40.183Z,7.38
2024-02-10T00:56:10.434Z,7.85
2024-02-10T00:58:43.026Z,7.68
2024-02-10T01:01:14.467Z,6.20
2024-02-10T01:03:46.395Z,6.65
2024-02-10T01:06:17.001Z,7.50
2024-02-10T01:08:50.563Z,7.47
2024-02-10T01:11:21.038Z,7.15
2024-02-10T01:13:51.991Z,7.97
2024-02-10T01:16:21.934Z,7.03
2024-02-10T01:18:51.304Z,6.93
2024-02-10T01:21:19.978Z,6.65
2024-02-10T01:23:50.771Z,6.88
2024-02-10T01:26:20.670Z,6.57
2024-02-10T01:28:49.210Z,7.35
2024-02-10T01:31:18.458Z,7.03
2024-02-10T01:33:48.907Z,6.95
2024-02-10T01:36:17.773Z,5.78
2024-02-10T01:38:47.961Z,6.22
2024-02-10T01:41:17.038Z,6.20
2024-02-10T01:43:47.651Z,5.60
2024-02-10T01:46:17.377Z,7.43
2024-02-10T01:48:46.462Z,6.18
2024-02-10T01:51:16.017Z,6.00
2024-02-10T01:53:45.364Z,5.80
2024-02-10T01:56:17.420Z,5.80
2024-02-10T01:58:49.520Z,6.25
2024-02-10T02:01:18.685Z,5.97
2024-02-10T02:03:48.455Z,6.00
2024-02-10T02:06:19.711Z,7.82
2024-02-10T02:08:49.786Z,5.43
2024-02-10T02:11:18.721Z,5.32
2024-02-10T02:13:51.611Z,4.70
2024-02-10T02:16:21.482Z,5.78
2024-02-10T02:18:49.968Z,5.20
2024-02-10T02:21:18.902Z,5.20
2024-02-10T02:23:48.987Z,4.68
2024-02-10T02:26:17.710Z,5.07
2024-02-10T02:28:46.234Z,5.45
2024-02-10T02:31:16.564Z,5.68
2024-02-10T02:33:45.011Z,5.60
2024-02-10T02:36:15.082Z,5.40
2024-02-10T02:38:45.327Z,5.43
2024-02-10T02:41:16.034Z,5.70
2024-02-10T02:43:46.974Z,5.65
2024-02-10T02:46:15.423Z,5.55
2024-02-10T02:48:44.078Z,5.80
2024-02-10T02:51:16.213Z,5.68
2024-02-10T02:53:44.835Z,5.70
2024-02-10T02:56:17.298Z,5.20
2024-02-10T02:58:45.690Z,5.63
2024-02-10T03:01:14.193Z,5.97
2024-02-10T03:03:42.700Z,6.32
2024-02-10T03:06:11.184Z,6.25
2024-02-10T03:08:43.387Z,6.65
2024-02-10T03:11:13.654Z,7.43
2024-02-10T03:13:45.033Z,7.25
2024-02-10T03:16:14.034Z,7.50
2024-02-10T03:18:46.570Z,7.90
2024-02-10T03:21:15.464Z,8.45
2024-02-10T03:23:45.775Z,9.23
2024-02-10T03:26:14.709Z,8.07
2024-02-10T03:28:44.529Z,13.68
2024-02-10T03:31:13.317Z,14.68
2024-02-10T03:33:42.033Z,13.80
2024-02-10T03:36:10.549Z,11.95
2024-02-10T03:38:38.968Z,9.95
2024-02-10T03:41:12.285Z,8.85
2024-02-10T03:43:40.809Z,7.15
2024-02-10T03:46:10.953Z,6.57
2024-02-10T03:48:41.110Z,6.15
2024-02-10T03:51:10.330Z,7.10
2024-02-10T03:53:40.202Z,7.00
2024-02-10T03:56:11.314Z,6.15
2024-02-10T03:58:43.171Z,6.20
2024-02-10T04:01:16.715Z,6.25
2024-02-10T04:03:46.584Z,7.70
2024-02-10T04:06:16.827Z,6.40
2024-02-10T04:08:47.431Z,8.15
2024-02-10T04:11:17.851Z,7.65
2024-02-10T04:13:47.140Z,6.47
2024-02-10T04:16:17.638Z,6.47
2024-02-10T04:18:46.116Z,6.85
2024-02-10T04:21:16.298Z,6.80
2024-02-10T04:23:45.140Z,5.53
2024-02-10T04:26:13.943Z,6.30
2024-02-10T04:28:42.494Z,6.13
2024-02-10T04:31:12.962Z,6.45
2024-02-10T04:33:51.689Z,6.25
2024-02-10T04:36:22.334Z,6.75
2024-02-10T04:38:50.750Z,5.80
2024-02-10T04:41:19.974Z,6.03
2024-02-10T04:43:48.486Z,6.60
2024-02-10T04:46:18.210Z,6.22
2024-02-10T04:48:49.342Z,6.07
2024-02-10T04:51:17.915Z,5.18
2024-02-10T04:53:46.340Z,5.47
2024-02-10T04:56:18.852Z,5.10
2024-02-10T04:58:47.730Z,5.43
2024-02-10T05:01:21.444Z,5.28
2024-02-10T05:03:51.762Z,4.38
2024-02-10T05:06:20.240Z,5.57
2024-02-10T05:08:48.798Z,5.43
2024-02-10T05:11:17.167Z,5.38
2024-02-10T05:13:45.944Z,6.47
2024-02-10T05:16:17.179Z,6.15
2024-02-10T05:18:45.835Z,5.22
2024-02-10T05:21:21.677Z,4.90
2024-02-10T05:23:51.193Z,5.55
2024-02-10T05:26:19.742Z,6.05
2024-02-10T05:28:49.199Z,4.82
2024-02-10T05:31:18.327Z,6.20
2024-02-10T05:33:48.052Z,5.47
2024-02-10T05:36:16.534Z,5.68
2024-02-10T05:38:49.170Z,6.00
2024-02-10T05:41:18.976Z,6.93
2024-02-10T05:43:48.567Z,7.70
2024-02-10T05:46:17.176Z,8.60
2024-02-10T05:48:45.894Z,6.15
2024-02-10T05:51:14.907Z,7.00
2024-02-10T05:53:46.549Z,5.78
2024-02-10T05:56:17.055Z,7.43
2024-02-10T05:58:45.725Z,7.72
2024-02-10T06:01:15.547Z,6.80
2024-02-10T06:03:44.693Z,6.45
2024-02-10T06:06:15.498Z,8.05
2024-02-10T06:08:44.385Z,6.28
2024-02-10T06:11:12.895Z,5.68
2024-02-10T06:13:43.973Z,5.40
2024-02-10T06:16:12.412Z,5.88
2024-02-10T06:18:41.377Z,5.60
2024-02-10T06:21:10.109Z,5.90
2024-02-10T06:23:39.070Z,6.68
2024-02-10T06:26:11.781Z,5.63
2024-02-10T06:28:41.380Z,5.47
2024-02-10T06:31:15.908Z,5.03
2024-02-10T06:33:47.127Z,4.28
2024-02-10T06:36:17.087Z,4.32
2024-02-10T06:38:46.782Z,4.38
2024-02-10T06:41:15.363Z,3.90
2024-02-10T06:43:43.941Z,4.15
2024-02-10T06:46:15.741Z,4.22
2024-02-10T06:48:44.604Z,4.78
2024-02-10T06:51:13.284Z,3.85
2024-02-10T06:53:41.775Z,3.92
2024-02-10T06:56:10.836Z,4.18
2024-02-10T06:58:40.742Z,4.65
2024-02-10T07:01:12.133Z,3.60
2024-02-10T07:03:47.128Z,3.88
2024-02-10T07:06:19.172Z,4.85
2024-02-10T07:08:48.167Z,4.43
2024-02-10T07:11:16.690Z,4.68
2024-02-10T07:13:45.103Z,4.75
2024-02-10T07:16:14.066Z,4.40
2024-02-10T07:18:48.752Z,4.30
2024-02-10T07:21:17.964Z,4.72
2024-02-10T07:23:46.961Z,4.13
2024-02-10T07:26:15.495Z,5.15
2024-02-10T07:28:44.301Z,4.03
2024-02-10T07:31:13.784Z,5.53
2024-02-10T07:33:47.038Z,4.93
2024-02-10T07:36:16.896Z,4.30
2024-02-10T07:38:45.313Z,5.68
2024-02-10T07:41:13.934Z,5.85
2024-02-10T07:43:42.451Z,6.07
2024-02-10T07:46:10.841Z,5.30
2024-02-10T07:48:39.344Z,5.82
2024-02-10T07:51:09.597Z,6.28
2024-02-10T07:53:38.111Z,6.65
2024-02-10T07:56:06.791Z,7.00
2024-02-10T07:58:36.194Z,6.97
2024-02-10T08:01:04.756Z,7.20
2024-02-10T08:03:33.666Z,7.10
2024-02-10T08:06:02.282Z,6.93
2024-02-10T08:08:32.515Z,6.93
2024-02-10T08:11:00.995Z,6.95
2024-02-10T08:13:30.900Z,7.25
2024-02-10T08:16:02.258Z,7.40
2024-02-10T08:18:32.912Z,7.70
2024-02-10T08:21:01.409Z,7.65
2024-02-10T08:23:29.837Z,7.88
2024-02-10T08:26:00.203Z,6.25
2024-02-10T08:28:30.802Z,6.47
2024-02-10T08:31:00.859Z,6.10
2024-02-10T08:33:35.092Z,7.15
2024-02-10T08:36:03.911Z,8.23
2024-02-10T08:38:33.037Z,7.18
2024-02-10T08:41:02.788Z,7.90
2024-02-10T08:43:31.300Z,7.97
2024-02-10T08:46:02.029Z,8.30
2024-02-10T08:48:30.647Z,9.70
2024-02-10T08:50:59.412Z,9.65
2024-02-10T08:53:28.283Z,9.40
2024-02-10T08:55:56.731Z,9.32
2024-02-10T08:58:27.225Z,10.45
2024-02-10T09:00:55.924Z,9.32
2024-02-10T09:03:25.507Z,10.25
2024-02-10T09:05:54.548Z,10.52
2024-02-10T09:08:23.780Z,11.55
2024-02-10T09:10:52.255Z,11.65
2024-02-10T09:13:21.656Z,10.35
2024-02-10T09:18:26.578Z,9.50
2024-02-10T09:20:55.101Z,9.05
2024-02-10T09:23:23.466Z,8.57
2024-02-10T09:25:52.227Z,8.60
2024-02-10T09:28:20.688Z,7.53
2024-02-10T09:30:49.500Z,7.10
2024-02-10T09:33:22.600Z,6.93
2024-02-10T09:35:54.034Z,7.20
2024-02-10T09:38:23.814Z,7.00
2024-02-10T09:40:58.875Z,5.30
2024-02-10T09:43:33.513Z,5.38
2024-02-10T09:46:04.369Z,4.82
2024-02-10T09:48:34.004Z,5.68
2024-02-10T09:51:03.784Z,5.68
2024-02-10T09:53:32.391Z,5.63
2024-02-10T09:56:03.292Z,6.03
2024-02-10T09:58:32.950Z,5.57
2024-02-10T10:01:02.525Z,5.13
2024-02-10T10:03:32.223Z,5.10
2024-02-10T10:06:04.157Z,5.05
2024-02-10T10:08:36.005Z,5.05
2024-02-10T10:11:04.686Z,5.07
2024-02-10T10:13:35.198Z,4.30
2024-02-10T10:16:06.922Z,4.97
2024-02-10T10:18:36.537Z,5.22
2024-02-10T10:21:07.337Z,4.72
2024-02-10T10:23:37.221Z,3.67
2024-02-10T10:26:07.209Z,4.53
2024-02-10T10:28:35.720Z,4.68
2024-02-10T10:31:04.633Z,5.10
2024-02-10T10:33:35.046Z,4.90
2024-02-10T10:36:04.232Z,4.57
2024-02-10T10:38:33.030Z,4.13
2024-02-10T10:41:03.662Z,3.60
2024-02-10T10:43:33.003Z,3.60
2024-02-10T10:46:01.536Z,3.25
2024-02-10T10:48:30.074Z,3.15
2024-02-10T10:50:59.782Z,2.95
2024-02-10T10:53:29.753Z,2.65
2024-02-10T10:56:01.059Z,2.17
2024-02-10T10:58:34.798Z,1.90
2024-02-10T11:01:04.484Z,1.83
2024-02-10T11:03:33.570Z,1.70
2024-02-10T11:06:12.447Z,1.40
2024-02-10T11:08:42.294Z,1.13
2024-02-10T11:11:11.515Z,1.10
2024-02-10T11:13:41.542Z,1.10
2024-02-10T11:16:14.111Z,1.05
2024-02-10T11:18:45.271Z,1.00
2024-02-10T11:21:20.484Z,0.90
2024-02-10T11:24:02.479Z,0.80
2024-02-10T11:26:32.740Z,1.00
2024-02-10T11:29:03.693Z,1.80
2024-02-10T11:31:35.024Z,1.65
2024-02-10T11:34:07.043Z,1.35
2024-02-10T11:36:37.290Z,1.55
2024-02-10T11:39:08.775Z,0.93
2024-02-10T11:41:37.628Z,0.80
2024-02-10T11:44:09.342Z,0.95
2024-02-10T11:46:38.292Z,1.00
2024-02-10T11:49:06.760Z,1.40
2024-02-10T11:51:37.235Z,1.23
2024-02-10T11:54:06.088Z,0.75
2024-02-10T11:56:35.330Z,0.63
2024-02-10T11:59:04.694Z,0.70
2024-02-10T12:01:35.619Z,0.80
2024-02-10T12:04:05.742Z,0.60
2024-02-10T12:06:37.936Z,0.60
2024-02-10T12:09:11.235Z,0.90
2024-02-10T12:11:39.980Z,0.80
2024-02-10T12:14:15.420Z,0.55
2024-02-10T12:16:46.667Z,1.02
2024-02-10T12:19:16.891Z,1.08
2024-02-10T12:21:46.486Z,0.88
2024-02-10T12:24:15.685Z,0.80
2024-02-10T12:26:44.133Z,0.73
2024-02-10T12:29:14.400Z,0.75
2024-02-10T12:31:45.469Z,0.95
2024-02-10T12:34:16.657Z,0.88
2024-02-10T12:36:45.232Z,0.60
2024-02-10T12:39:13.841Z,0.70
2024-02-10T12:41:44.003Z,0.70
2024-02-10T12:44:13.152Z,0.60
2024-02-10T12:46:42.098Z,0.70
2024-02-10T12:49:11.925Z,0.90
2024-02-10T12:51:42.001Z,0.70
2024-02-10T12:54:12.484Z,1.05
2024-02-10T12:56:41.342Z,0.80
2024-02-10T12:59:11.796Z,0.80
2024-02-10T13:01:40.727Z,0.60
2024-02-10T13:04:09.433Z,0.80
2024-02-10T13:06:41.962Z,0.52
2024-02-10T13:09:10.981Z,0.60
2024-02-10T13:11:39.736Z,0.60
2024-02-10T13:14:11.303Z,0.50
2024-02-10T13:16:42.181Z,0.70
2024-02-10T13:19:15.087Z,0.70
2024-02-10T13:21:45.701Z,0.70
2024-02-10T13:24:15.753Z,0.47
2024-02-10T13:26:44.180Z,0.50
2024-02-10T13:29:13.003Z,0.60
2024-02-10T13:31:41.524Z,0.50
2024-02-10T13:34:19.991Z,0.90
2024-02-10T13:36:54.175Z,0.60
2024-02-10T13:39:40.241Z,0.57
2024-02-10T13:42:27.488Z,0.80
2024-02-10T13:45:13.548Z,0.90
2024-02-10T13:47:59.884Z,0.80
2024-02-10T13:50:45.741Z,0.80
2024-02-10T13:53:33.155Z,0.70
2024-02-10T13:56:19.193Z,1.05
2024-02-10T13:58:46.505Z,0.82
2024-02-10T14:01:18.481Z,0.77
2024-02-10T14:04:06.754Z,0.90
2024-02-10T14:06:35.864Z,0.70
2024-02-10T14:09:05.757Z,0.85
2024-02-10T14:11:37.373Z,0.90
2024-02-10T14:14:06.431Z,1.00
2024-02-10T14:16:39.313Z,0.95
2024-02-10T14:19:15.103Z,0.90
2024-02-10T14:21:46.289Z,1.10
2024-02-10T14:24:19.656Z,0.98
2024-02-10T14:27:02.074Z,1.67
2024-02-10T14:29:35.156Z,2.20
2024-02-10T14:32:11.807Z,2.00
2024-02-10T14:35:02.059Z,2.10
2024-02-10T14:37:43.131Z,2.05
2024-02-10T14:40:17.247Z,1.77
2024-02-10T14:42:45.760Z,2.50
2024-02-10T14:45:20.134Z,1.98
2024-02-10T14:47:48.779Z,2.25
2024-02-10T14:50:19.043Z,2.00
2024-02-10T14:52:48.700Z,2.00
2024-02-10T14:55:19.507Z,2.80
2024-02-10T14:57:48.009Z,3.15
2024-02-10T15:00:18.267Z,3.10
2024-02-10T15:02:46.768Z,2.13
2024-02-10T15:05:15.985Z,2.05
2024-02-10T15:07:44.588Z,1.42
2024-02-10T15:10:13.517Z,2.25
2024-02-10T15:12:43.376Z,2.55
2024-02-10T15:15:12.284Z,2.95
2024-02-10T15:17:41.236Z,2.50
2024-02-10T15:20:11.004Z,2.30
2024-02-10T15:22:41.316Z,2.40
2024-02-10T15:25:15.378Z,2.72
2024-02-10T15:27:46.038Z,2.60
2024-02-10T15:30:15.688Z,2.67
2024-02-10T15:32:45.662Z,3.33
2024-02-10T15:35:15.382Z,2.80
2024-02-10T15:37:44.090Z,3.13
2024-02-10T15:40:21.900Z,2.30
2024-02-10T15:42:52.508Z,2.83
2024-02-10T15:45:26.271Z,2.55
2024-02-10T15:47:56.335Z,2.47
2024-02-10T15:50:25.112Z,2.95
2024-02-10T15:52:54.238Z,2.83
2024-02-10T15:55:22.779Z,2.97
2024-02-10T15:57:53.640Z,2.80
2024-02-10T16:00:24.674Z,3.72
2024-02-10T16:02:53.633Z,3.17
2024-02-10T16:05:23.294Z,3.22
2024-02-10T16:07:53.296Z,3.33
2024-02-10T16:10:22.296Z,3.20
2024-02-10T16:12:53.138Z,3.65
2024-02-10T16:15:22.334Z,3.00
2024-02-10T16:17:52.429Z,3.58
2024-02-10T16:20:22.704Z,3.80
2024-02-10T16:22:53.339Z,3.97
2024-02-10T16:25:24.471Z,3.83
2024-02-10T16:27:54.437Z,4.32
2024-02-10T16:30:23.247Z,4.80
2024-02-10T16:32:51.742Z,4.70
2024-02-10T16:35:27.095Z,4.40
2024-02-10T16:37:57.573Z,4.47
2024-02-10T16:40:30.573Z,5.32
2024-02-10T16:43:01.362Z,4.78
2024-02-10T16:45:31.303Z,5.75
2024-02-10T16:48:00.786Z,5.40
2024-02-10T16:50:30.064Z,5.82
2024-02-10T16:53:03.878Z,6.00
2024-02-10T16:55:38.744Z,6.45
2024-02-10T16:58:09.311Z,5.80
2024-02-10T17:00:38.354Z,6.93
2024-02-10T17:03:09.407Z,6.80
2024-02-10T17:05:39.042Z,7.53
2024-02-10T17:08:09.592Z,6.45
2024-02-10T17:10:38.796Z,6.70
2024-02-10T17:13:08.942Z,6.93
2024-02-10T17:15:37.564Z,6.88
2024-02-10T17:18:11.788Z,6.60
2024-02-10T17:20:40.861Z,6.43
2024-02-10T17:23:10.159Z,6.80
2024-02-10T17:25:38.729Z,6.20
2024-02-10T17:28:08.811Z,6.97
2024-02-10T17:30:37.288Z,6.05
2024-02-10T17:33:07.450Z,7.25
2024-02-10T17:35:36.142Z,7.32
2024-02-10T17:38:06.973Z,6.93
2024-02-10T17:40:35.897Z,6.63
2024-02-10T17:43:04.993Z,7.38
2024-02-10T17:45:35.081Z,6.47
2024-02-10T17:48:03.794Z,6.18
2024-02-10T17:50:32.345Z,6.47
2024-02-10T17:53:02.147Z,6.75
2024-02-10T17:55:30.866Z,6.63
2024-02-10T17:57:59.363Z,5.85
2024-02-10T18:00:27.958Z,7.10
2024-02-10T18:02:58.809Z,7.32
2024-02-10T18:05:27.748Z,6.30
2024-02-10T18:07:56.621Z,8.13
2024-02-10T18:10:25.399Z,7.63
2024-02-10T18:12:53.950Z,8.25
2024-02-10T18:15:25.545Z,7.90
2024-02-10T18:17:54.677Z,8.13
2024-02-10T18:20:28.157Z,6.15
2024-02-10T18:22:56.988Z,7.80
2024-02-10T18:25:27.083Z,7.97
2024-02-10T18:27:55.807Z,7.75
2024-02-10T18:30:24.518Z,7.70
2024-02-10T18:32:52.192Z,8.15
2024-02-10T18:35:24.292Z,8.52
2024-02-10T18:37:56.098Z,9.75
2024-02-10T18:40:26.797Z,8.60
2024-02-10T18:42:55.461Z,8.70
2024-02-10T18:45:25.192Z,8.02
2024-02-10T18:47:54.407Z,10.00
2024-02-10T18:50:23.064Z,7.82
2024-02-10T18:52:51.967Z,7.88
2024-02-10T18:55:22.410Z,8.20
2024-02-10T18:57:51.182Z,9.10
2024-02-10T19:00:21.596Z,9.30
2024-02-10T19:02:53.471Z,7.60
2024-02-10T19:05:23.953Z,9.50
2024-02-10T19:07:52.545Z,9.25
2024-02-10T19:10:22.389Z,9.63
2024-02-10T19:12:51.025Z,10.93
2024-02-10T19:15:19.723Z,9.55
2024-02-10T19:17:50.170Z,10.68
2024-02-10T19:20:20.574Z,9.23
2024-02-10T19:22:49.983Z,9.93
2024-02-10T19:25:21.315Z,10.23
2024-02-10T19:27:51.865Z,10.65
2024-02-10T19:30:20.920Z,12.32
2024-02-10T19:32:51.798Z,10.00
2024-02-10T19:35:22.126Z,10.73
2024-02-10T19:37:51.588Z,12.10
2024-02-10T19:40:21.805Z,10.85
2024-02-10T19:42:56.162Z,11.75
2024-02-10T19:45:26.636Z,13.05
2024-02-10T19:47:55.688Z,14.68
2024-02-10T19:50:24.960Z,12.10
2024-02-10T19:52:59.345Z,15.43
2024-02-10T19:55:28.450Z,14.68
2024-02-10T19:57:58.918Z,14.60
2024-02-10T20:00:27.802Z,9.35
2024-02-10T20:02:56.413Z,12.20
2024-02-10T20:05:27.062Z,12.63
2024-02-10T20:07:55.767Z,12.75
2024-02-10T20:10:24.265Z,13.38
2024-02-10T20:12:53.842Z,14.93
2024-02-10T20:15:30.117Z,15.35
2024-02-10T20:18:01.476Z,13.68
2024-02-10T20:20:32.316Z,13.98
2024-02-10T20:23:02.121Z,15.05
2024-02-10T20:25:30.818Z,13.48
2024-02-10T20:27:59.375Z,15.35
2024-02-10T20:30:30.528Z,14.93
2024-02-10T20:32:59.483Z,16.33
2024-02-10T20:35:28.153Z,15.55
2024-02-10T20:37:57.377Z,16.10
2024-02-10T20:40:25.831Z,16.25
2024-02-10T20:42:54.540Z,18.33
2024-02-10T20:45:23.072Z,16.17
2024-02-10T20:47:53.265Z,14.38
2024-02-10T20:50:22.563Z,16.75
2024-02-10T20:52:52.327Z,15.18
2024-02-10T20:55:23.618Z,13.18
2024-02-10T20:57:52.395Z,17.98
2024-02-10T21:00:21.888Z,16.40
2024-02-10T21:02:50.852Z,13.48
2024-02-10T21:05:23.394Z,18.92
2024-02-10T21:07:52.224Z,18.50
2024-02-10T21:10:21.098Z,18.25
2024-02-10T21:12:50.429Z,20.42
2024-02-10T21:15:19.554Z,17.30
2024-02-10T21:20:17.568Z,16.00
2024-02-10T21:22:48.406Z,18.67
2024-02-10T21:25:17.342Z,20.42
2024-02-10T21:27:46.097Z,19.70
2024-02-10T21:30:14.980Z,20.83
2024-02-10T21:32:44.412Z,16.55
2024-02-10T21:35:13.268Z,18.05
2024-02-10T21:37:42.275Z,17.83
2024-02-10T21:40:13.960Z,19.38
2024-02-10T21:42:43.702Z,18.70
2024-02-10T21:45:12.190Z,18.15
2024-02-10T21:47:41.304Z,18.88
2024-02-10T21:50:10.277Z,19.92
2024-02-10T21:52:39.000Z,14.00
2024-02-10T21:55:10.019Z,21.48
2024-02-10T21:57:43.941Z,17.63
2024-02-10T22:00:16.726Z,20.58
2024-02-10T22:02:50.589Z,19.58
2024-02-10T22:05:21.478Z,18.40
2024-02-10T22:07:50.221Z,23.52
2024-02-10T22:10:19.310Z,21.63
2024-02-10T22:12:49.471Z,18.17
2024-02-10T22:15:21.052Z,23.00
2024-02-10T22:17:49.728Z,22.40
2024-02-10T22:20:19.456Z,18.98
2024-02-10T22:22:49.049Z,13.43
2024-02-10T22:25:18.095Z,21.67
2024-02-10T22:27:46.955Z,18.60
2024-02-10T22:30:20.416Z,19.70
2024-02-10T22:32:50.592Z,24.30
2024-02-10T22:35:20.236Z,20.02
2024-02-10T22:37:49.870Z,16.23
2024-02-10T22:40:23.898Z,20.17
2024-02-10T22:42:53.700Z,18.95
2024-02-10T22:45:24.228Z,17.40
2024-02-10T22:47:55.279Z,21.42
2024-02-10T22:50:23.873Z,19.75
2024-02-10T22:52:53.205Z,19.90
2024-02-10T22:55:23.483Z,18.98
2024-02-10T22:57:51.945Z,18.52
2024-02-10T23:00:33.315Z,17.45
2024-02-10T23:03:05.977Z,20.92
2024-02-10T23:05:35.070Z,20.67
2024-02-10T23:08:03.909Z,22.90
2024-02-10T23:10:32.507Z,23.65
2024-02-10T23:13:07.850Z,21.58
2024-02-10T23:15:37.814Z,22.70
2024-02-10T23:18:12.803Z,20.05
2024-02-10T23:23:32.750Z,20.95
2024-02-10T23:26:01.810Z,19.55
2024-02-10T23:28:30.300Z,21.08
2024-02-10T23:31:01.743Z,21.00
2024-02-10T23:33:33.589Z,20.00
2024-02-10T23:36:06.141Z,18.95
2024-02-10T23:38:36.459Z,20.55
2024-02-10T23:41:05.950Z,18.83
2024-02-10T23:43:36.013Z,18.70
2024-02-10T23:46:07.653Z,20.98
2024-02-10T23:48:38.021Z,19.15
2024-02-10T23:51:07.345Z,17.17
2024-02-10T23:53:37.142Z,19.45
2024-02-10T23:56:09.250Z,17.92
2024-02-10T23:58:38.644Z,19.70
